EWG1156 EDDK-HECA
Flight info
| Callsign | EWG1156 |
|---|---|
| Flight time | N/A |
| Altitude | 35000 |
| Route | KUMIK7K KUMIK L603 TESGA DCT ESATI DCT OSBIT DCT TENLO DCT LAMSI DCT LIMRA DCT LURID/N0451F370 DCT ENFAR DCT BITLA DCT KEA UN132 LAPSO DCT GUDIS DCT KUMBI L612 BLT |
| Aircraft | A320/M-SDE3FGHIRWY/LB1 |
Departure
| Time | 2026-04-22 08:03 |
|---|---|
| Airport | Cologne Bonn Airport (EDDK) |
Arrival
| Time | N/A |
|---|---|
| Airport | Cairo International Airport (HECA) |
| Time | Latitude | Longitude | Altitude | Speed | Heading |
|---|---|---|---|---|---|
| 2026-04-22 07:27 | 50.88247 | 7.12199 | 232 ft | 0 kts | 36° |
| 2026-04-22 07:53 | 50.88230 | 7.12182 | 235 ft | 4 kts | 30° |
| 2026-04-22 07:54 | 50.88212 | 7.12162 | 233 ft | 4 kts | 56° |
| 2026-04-22 07:54 | 50.88210 | 7.12130 | 232 ft | 4 kts | 120° |
| 2026-04-22 07:54 | 50.88224 | 7.12098 | 235 ft | 2 kts | 126° |
| 2026-04-22 07:54 | 50.88225 | 7.12096 | 235 ft | 0 kts | 126° |
| 2026-04-22 07:59 | 50.88223 | 7.12100 | 235 ft | 2 kts | 126° |
| 2026-04-22 07:59 | 50.88201 | 7.12148 | 235 ft | 9 kts | 126° |
| 2026-04-22 07:59 | 50.88157 | 7.12251 | 232 ft | 12 kts | 115° |
| 2026-04-22 07:59 | 50.88151 | 7.12385 | 232 ft | 13 kts | 112° |
| 2026-04-22 08:00 | 50.88090 | 7.12493 | 232 ft | 14 kts | 138° |
| 2026-04-22 08:00 | 50.88016 | 7.12600 | 232 ft | 15 kts | 137° |
| 2026-04-22 08:00 | 50.87994 | 7.12741 | 239 ft | 10 kts | 73° |
| 2026-04-22 08:00 | 50.87997 | 7.12756 | 238 ft | 0 kts | 73° |
| 2026-04-22 08:01 | 50.87999 | 7.12768 | 237 ft | 4 kts | 74° |
| 2026-04-22 08:01 | 50.88011 | 7.12867 | 239 ft | 15 kts | 86° |
| 2026-04-22 08:02 | 50.87958 | 7.13033 | 239 ft | 13 kts | 126° |
| 2026-04-22 08:02 | 50.87939 | 7.13062 | 239 ft | 1 kts | 138° |
| 2026-04-22 08:02 | 50.87818 | 7.13240 | 239 ft | 59 kts | 137° |
| 2026-04-22 08:02 | 50.87354 | 7.13913 | 242 ft | 120 kts | 137° |
| 2026-04-22 08:03 | 50.86622 | 7.14974 | 277 ft | 164 kts | 137° |
| 2026-04-22 08:03 | 50.85775 | 7.16186 | 881 ft | 164 kts | 135° |
| 2026-04-22 08:03 | 50.84921 | 7.17405 | 1599 ft | 167 kts | 135° |
| 2026-04-22 08:03 | 50.84026 | 7.18669 | 1987 ft | 184 kts | 135° |
| 2026-04-22 08:04 | 50.83030 | 7.20079 | 2379 ft | 200 kts | 136° |
| 2026-04-22 08:04 | 50.82052 | 7.21739 | 2721 ft | 216 kts | 118° |
| 2026-04-22 08:04 | 50.81527 | 7.23992 | 3421 ft | 218 kts | 102° |
| 2026-04-22 08:04 | 50.81428 | 7.26426 | 3974 ft | 233 kts | 88° |
| 2026-04-22 08:05 | 50.81494 | 7.29086 | 4532 ft | 247 kts | 87° |
| 2026-04-22 08:05 | 50.81582 | 7.31817 | 5395 ft | 251 kts | 86° |
| 2026-04-22 08:05 | 50.81677 | 7.34579 | 6299 ft | 253 kts | 86° |
| 2026-04-22 08:05 | 50.81769 | 7.37367 | 7156 ft | 255 kts | 86° |
| 2026-04-22 08:06 | 50.81857 | 7.40180 | 7979 ft | 257 kts | 86° |
| 2026-04-22 08:06 | 50.81939 | 7.43017 | 8787 ft | 260 kts | 86° |
| 2026-04-22 08:06 | 50.82023 | 7.45892 | 9599 ft | 263 kts | 86° |
| 2026-04-22 08:06 | 50.82108 | 7.48797 | 10382 ft | 266 kts | 86° |
| 2026-04-22 08:07 | 50.82195 | 7.51791 | 10775 ft | 284 kts | 86° |
| 2026-04-22 08:07 | 50.82289 | 7.55002 | 10946 ft | 307 kts | 86° |
| 2026-04-22 08:07 | 50.82389 | 7.58522 | 11232 ft | 324 kts | 86° |
| 2026-04-22 08:07 | 50.82489 | 7.62068 | 11807 ft | 330 kts | 86° |
| 2026-04-22 08:08 | 50.82591 | 7.65717 | 12463 ft | 334 kts | 86° |
| 2026-04-22 08:08 | 50.82693 | 7.69398 | 13119 ft | 337 kts | 86° |
| 2026-04-22 08:08 | 50.82796 | 7.73127 | 13796 ft | 341 kts | 86° |
| 2026-04-22 08:08 | 50.82898 | 7.76890 | 14400 ft | 344 kts | 86° |
| 2026-04-22 08:09 | 50.83000 | 7.80676 | 14975 ft | 347 kts | 86° |
| 2026-04-22 08:09 | 50.83102 | 7.84508 | 15565 ft | 350 kts | 86° |
| 2026-04-22 08:09 | 50.83201 | 7.88371 | 16165 ft | 353 kts | 86° |
| 2026-04-22 08:09 | 50.83296 | 7.92255 | 16748 ft | 355 kts | 86° |
| 2026-04-22 08:10 | 50.83389 | 7.96178 | 17316 ft | 358 kts | 86° |
| 2026-04-22 08:10 | 50.83485 | 8.00079 | 17886 ft | 361 kts | 86° |
| 2026-04-22 08:10 | 50.83415 | 8.04071 | 18408 ft | 367 kts | 95° |
| 2026-04-22 08:10 | 50.82842 | 8.08028 | 18886 ft | 373 kts | 106° |
| 2026-04-22 08:11 | 50.81761 | 8.11779 | 19347 ft | 379 kts | 117° |
| 2026-04-22 08:11 | 50.80306 | 8.15295 | 19817 ft | 383 kts | 120° |
| 2026-04-22 08:11 | 50.78818 | 8.18811 | 20286 ft | 386 kts | 120° |
| 2026-04-22 08:11 | 50.77322 | 8.22353 | 20757 ft | 389 kts | 120° |
| 2026-04-22 08:12 | 50.75817 | 8.25919 | 21220 ft | 391 kts | 120° |
| 2026-04-22 08:12 | 50.74300 | 8.29500 | 21665 ft | 394 kts | 120° |
| 2026-04-22 08:12 | 50.72791 | 8.33058 | 22100 ft | 397 kts | 120° |
| 2026-04-22 08:12 | 50.71230 | 8.36665 | 22534 ft | 400 kts | 123° |
| 2026-04-22 08:13 | 50.69361 | 8.39957 | 22952 ft | 407 kts | 133° |
| 2026-04-22 08:13 | 50.67078 | 8.42778 | 23398 ft | 415 kts | 143° |
| 2026-04-22 08:13 | 50.64544 | 8.45021 | 23798 ft | 420 kts | 148° |
| 2026-04-22 08:13 | 50.61995 | 8.47165 | 24150 ft | 422 kts | 148° |
| 2026-04-22 08:14 | 50.59396 | 8.49354 | 24497 ft | 425 kts | 148° |
| 2026-04-22 08:14 | 50.56792 | 8.51550 | 24834 ft | 427 kts | 148° |
| 2026-04-22 08:14 | 50.54167 | 8.53761 | 25144 ft | 430 kts | 149° |
| 2026-04-22 08:14 | 50.51520 | 8.55984 | 25459 ft | 432 kts | 149° |
| 2026-04-22 08:15 | 50.48879 | 8.58202 | 25788 ft | 434 kts | 149° |
| 2026-04-22 08:15 | 50.46203 | 8.60480 | 26109 ft | 435 kts | 146° |
| 2026-04-22 08:15 | 50.43733 | 8.63179 | 26443 ft | 433 kts | 137° |
| 2026-04-22 08:15 | 50.41526 | 8.66382 | 26765 ft | 433 kts | 133° |
| 2026-04-22 08:16 | 50.39359 | 8.69677 | 27091 ft | 435 kts | 133° |
| 2026-04-22 08:16 | 50.37176 | 8.72968 | 27406 ft | 436 kts | 133° |
| 2026-04-22 08:16 | 50.34979 | 8.76265 | 27721 ft | 438 kts | 133° |
| 2026-04-22 08:16 | 50.32771 | 8.79569 | 28024 ft | 440 kts | 133° |
| 2026-04-22 08:17 | 50.30584 | 8.82841 | 28297 ft | 442 kts | 133° |
| 2026-04-22 08:17 | 50.28328 | 8.86217 | 28561 ft | 444 kts | 133° |
| 2026-04-22 08:17 | 50.26120 | 8.89524 | 28833 ft | 446 kts | 133° |
| 2026-04-22 08:17 | 50.23875 | 8.92886 | 29081 ft | 448 kts | 133° |
| 2026-04-22 08:18 | 50.21619 | 8.96262 | 29355 ft | 450 kts | 133° |
| 2026-04-22 08:18 | 50.19352 | 8.99645 | 29616 ft | 452 kts | 134° |
| 2026-04-22 08:18 | 50.17073 | 9.03033 | 29870 ft | 453 kts | 134° |
| 2026-04-22 08:18 | 50.14795 | 9.06415 | 30232 ft | 453 kts | 134° |
| 2026-04-22 08:19 | 50.12517 | 9.09794 | 30579 ft | 452 kts | 134° |
| 2026-04-22 08:19 | 50.10393 | 9.13366 | 30852 ft | 449 kts | 125° |
| 2026-04-22 08:19 | 50.08685 | 9.17424 | 31134 ft | 445 kts | 115° |
| 2026-04-22 08:19 | 50.07457 | 9.21814 | 31415 ft | 442 kts | 105° |
| 2026-04-22 08:20 | 50.06716 | 9.26432 | 31688 ft | 439 kts | 96° |
| 2026-04-22 08:20 | 50.06474 | 9.31148 | 31945 ft | 436 kts | 87° |
| 2026-04-22 08:20 | 50.06546 | 9.35806 | 32192 ft | 437 kts | 86° |
| 2026-04-22 08:20 | 50.06614 | 9.40534 | 32436 ft | 437 kts | 86° |
| 2026-04-22 08:21 | 50.06672 | 9.45268 | 32709 ft | 438 kts | 86° |
| 2026-04-22 08:21 | 50.06724 | 9.50006 | 32976 ft | 438 kts | 87° |
| 2026-04-22 08:21 | 50.06770 | 9.54751 | 33228 ft | 439 kts | 87° |
| 2026-04-22 08:21 | 50.06815 | 9.59490 | 33491 ft | 439 kts | 87° |
| 2026-04-22 08:22 | 50.06858 | 9.64242 | 33786 ft | 439 kts | 87° |
| 2026-04-22 08:22 | 50.06903 | 9.68986 | 34103 ft | 438 kts | 87° |
| 2026-04-22 08:22 | 50.06751 | 9.73732 | 34373 ft | 440 kts | 96° |
| 2026-04-22 08:22 | 50.06113 | 9.78334 | 34586 ft | 444 kts | 105° |
| 2026-04-22 08:23 | 50.04960 | 9.82812 | 34787 ft | 448 kts | 115° |
| 2026-04-22 08:23 | 50.03353 | 9.86969 | 34979 ft | 451 kts | 121° |
| 2026-04-22 08:23 | 50.01616 | 9.91050 | 35195 ft | 452 kts | 121° |
| 2026-04-22 08:23 | 49.99886 | 9.95123 | 35310 ft | 453 kts | 121° |
| 2026-04-22 08:24 | 49.96405 | 10.03339 | 35332 ft | 457 kts | 121° |
| 2026-04-22 08:24 | 49.92934 | 10.11509 | 35345 ft | 455 kts | 121° |
| 2026-04-22 08:25 | 49.89441 | 10.19690 | 35332 ft | 454 kts | 121° |
| 2026-04-22 08:25 | 49.85943 | 10.27854 | 35347 ft | 454 kts | 121° |
| 2026-04-22 08:26 | 49.82438 | 10.36008 | 35349 ft | 455 kts | 121° |
| 2026-04-22 08:26 | 49.78953 | 10.44104 | 35344 ft | 455 kts | 121° |
| 2026-04-22 08:27 | 49.75442 | 10.52235 | 35363 ft | 455 kts | 121° |
| 2026-04-22 08:27 | 49.71918 | 10.60360 | 35355 ft | 455 kts | 121° |
| 2026-04-22 08:28 | 49.68395 | 10.68464 | 35336 ft | 455 kts | 121° |
| 2026-04-22 08:28 | 49.64879 | 10.76527 | 35333 ft | 456 kts | 121° |
| 2026-04-22 08:29 | 49.61325 | 10.84638 | 35342 ft | 457 kts | 121° |
| 2026-04-22 08:29 | 49.57765 | 10.92749 | 35347 ft | 457 kts | 121° |
| 2026-04-22 08:30 | 49.54800 | 10.99479 | 35339 ft | 456 kts | 121° |
| 2026-04-22 08:30 | 49.51514 | 11.07781 | 35343 ft | 453 kts | 114° |